sensor_id;sensor_type;location;lat;lon;timestamp;pressure;altitude;pressure_sealevel;temperature;humidity
12077;BME280;12420;42.676;23.262;2023-12-20T00:00:28;94938.81;;;1.64;100.00
12077;BME280;12420;42.676;23.262;2023-12-20T00:02:55;94955.50;;;1.57;100.00
12077;BME280;12420;42.676;23.262;2023-12-20T00:05:22;94937.97;;;1.49;100.00
12077;BME280;12420;42.676;23.262;2023-12-20T00:07:50;94934.47;;;1.48;100.00
12077;BME280;12420;42.676;23.262;2023-12-20T00:10:20;94903.81;;;1.11;100.00
12077;BME280;12420;42.676;23.262;2023-12-20T00:12:46;94892.72;;;1.33;100.00
12077;BME280;12420;42.676;23.262;2023-12-20T00:15:13;94915.38;;;1.48;100.00
12077;BME280;12420;42.676;23.262;2023-12-20T00:17:40;94919.91;;;1.51;100.00
12077;BME280;12420;42.676;23.262;2023-12-20T00:20:08;94899.03;;;1.39;100.00
12077;BME280;12420;42.676;23.262;2023-12-20T00:22:35;94907.34;;;1.54;100.00
12077;BME280;12420;42.676;23.262;2023-12-20T00:25:03;94899.31;;;1.50;100.00
12077;BME280;12420;42.676;23.262;2023-12-20T00:27:30;94869.72;;;1.25;100.00
12077;BME280;12420;42.676;23.262;2023-12-20T00:29:57;94880.88;;;1.36;100.00
12077;BME280;12420;42.676;23.262;2023-12-20T00:32:24;94897.66;;;1.44;100.00
12077;BME280;12420;42.676;23.262;2023-12-20T00:34:50;94891.28;;;1.47;100.00
12077;BME280;12420;42.676;23.262;2023-12-20T00:37:17;94890.41;;;1.41;100.00
12077;BME280;12420;42.676;23.262;2023-12-20T00:39:44;94880.97;;;1.51;100.00
12077;BME280;12420;42.676;23.262;2023-12-20T00:42:12;94877.78;;;1.52;100.00
12077;BME280;12420;42.676;23.262;2023-12-20T00:44:39;94874.59;;;1.54;100.00
12077;BME280;12420;42.676;23.262;2023-12-20T00:47:05;94875.53;;;1.51;100.00
12077;BME280;12420;42.676;23.262;2023-12-20T00:49:32;94882.81;;;1.45;100.00
12077;BME280;12420;42.676;23.262;2023-12-20T00:51:59;94878.56;;;1.44;100.00
12077;BME280;12420;42.676;23.262;2023-12-20T00:54:25;94883.22;;;1.52;100.00
12077;BME280;12420;42.676;23.262;2023-12-20T00:56:52;94875.53;;;1.51;100.00
12077;BME280;12420;42.676;23.262;2023-12-20T00:59:20;94865.88;;;1.41;100.00
12077;BME280;12420;42.676;23.262;2023-12-20T01:01:47;94865.88;;;1.41;100.00
12077;BME280;12420;42.676;23.262;2023-12-20T01:04:13;94862.09;;;1.38;100.00
12077;BME280;12420;42.676;23.262;2023-12-20T01:06:40;94855.28;;;1.34;100.00
12077;BME280;12420;42.676;23.262;2023-12-20T01:09:07;94853.50;;;1.30;100.00
12077;BME280;12420;42.676;23.262;2023-12-20T01:11:34;94849.09;;;1.33;100.00
12077;BME280;12420;42.676;23.262;2023-12-20T01:14:00;94848.34;;;1.33;100.00
12077;BME280;12420;42.676;23.262;2023-12-20T01:16:28;94853.78;;;1.33;100.00
12077;BME280;12420;42.676;23.262;2023-12-20T01:18:55;94824.19;;;1.07;100.00
12077;BME280;12420;42.676;23.262;2023-12-20T01:21:22;94849.84;;;1.34;100.00
12077;BME280;12420;42.676;23.262;2023-12-20T01:23:49;94841.66;;;1.34;100.00
12077;BME280;12420;42.676;23.262;2023-12-20T01:26:15;94841.19;;;1.35;100.00
12077;BME280;12420;42.676;23.262;2023-12-20T01:28:42;94828.63;;;1.38;100.00
12077;BME280;12420;42.676;23.262;2023-12-20T01:31:09;94831.38;;;1.28;100.00
12077;BME280;12420;42.676;23.262;2023-12-20T01:33:37;94831.97;;;1.33;100.00
12077;BME280;12420;42.676;23.262;2023-12-20T01:36:04;94814.41;;;1.24;100.00
12077;BME280;12420;42.676;23.262;2023-12-20T01:38:31;94815.03;;;1.19;100.00
12077;BME280;12420;42.676;23.262;2023-12-20T01:40:58;94817.03;;;1.19;100.00
12077;BME280;12420;42.676;23.262;2023-12-20T01:43:24;94799.94;;;1.09;100.00
12077;BME280;12420;42.676;23.262;2023-12-20T01:45:51;94806.13;;;1.19;100.00
12077;BME280;12420;42.676;23.262;2023-12-20T01:48:19;94796.56;;;1.23;100.00
12077;BME280;12420;42.676;23.262;2023-12-20T01:50:48;94796.56;;;1.23;100.00
12077;BME280;12420;42.676;23.262;2023-12-20T01:53:15;94795.63;;;1.26;100.00
12077;BME280;12420;42.676;23.262;2023-12-20T01:55:43;94798.34;;;1.26;100.00
12077;BME280;12420;42.676;23.262;2023-12-20T01:58:11;94783.25;;;1.16;100.00
12077;BME280;12420;42.676;23.262;2023-12-20T02:00:38;94797.00;;;1.22;100.00
12077;BME280;12420;42.676;23.262;2023-12-20T02:03:05;94767.84;;;1.04;100.00
12077;BME280;12420;42.676;23.262;2023-12-20T02:05:34;94785.34;;;1.21;100.00
12077;BME280;12420;42.676;23.262;2023-12-20T02:08:03;94769.38;;;1.05;100.00
12077;BME280;12420;42.676;23.262;2023-12-20T02:10:31;94792.13;;;1.02;100.00
12077;BME280;12420;42.676;23.262;2023-12-20T02:12:58;94681.56;;;0.34;100.00
12077;BME280;12420;42.676;23.262;2023-12-20T02:15:25;94778.19;;;1.00;100.00
12077;BME280;12420;42.676;23.262;2023-12-20T02:17:52;94780.50;;;0.92;100.00
12077;BME280;12420;42.676;23.262;2023-12-20T02:20:18;94772.13;;;0.96;100.00
12077;BME280;12420;42.676;23.262;2023-12-20T02:22:46;94750.84;;;0.76;100.00
12077;BME280;12420;42.676;23.262;2023-12-20T02:25:13;94769.88;;;0.94;100.00
12077;BME280;12420;42.676;23.262;2023-12-20T02:27:40;94748.56;;;0.83;100.00
12077;BME280;12420;42.676;23.262;2023-12-20T02:30:07;94741.75;;;0.79;100.00
12077;BME280;12420;42.676;23.262;2023-12-20T02:32:34;94756.72;;;0.93;100.00
12077;BME280;12420;42.676;23.262;2023-12-20T02:35:01;94749.75;;;0.92;100.00
12077;BME280;12420;42.676;23.262;2023-12-20T02:37:28;94748.84;;;0.95;100.00
12077;BME280;12420;42.676;23.262;2023-12-20T02:39:56;94736.88;;;0.92;100.00
12077;BME280;12420;42.676;23.262;2023-12-20T02:42:23;94739.28;;;0.99;100.00
12077;BME280;12420;42.676;23.262;2023-12-20T02:44:49;94747.03;;;0.92;100.00
12077;BME280;12420;42.676;23.262;2023-12-20T02:47:16;94744.91;;;0.86;100.00
12077;BME280;12420;42.676;23.262;2023-12-20T02:49:44;94740.69;;;0.85;100.00
12077;BME280;12420;42.676;23.262;2023-12-20T02:52:11;94731.97;;;0.72;100.00
12077;BME280;12420;42.676;23.262;2023-12-20T02:54:38;94741.63;;;0.82;100.00
12077;BME280;12420;42.676;23.262;2023-12-20T02:57:06;94736.78;;;0.77;100.00
12077;BME280;12420;42.676;23.262;2023-12-20T02:59:33;94708.09;;;0.58;100.00
12077;BME280;12420;42.676;23.262;2023-12-20T03:02:00;94734.63;;;0.81;100.00
12077;BME280;12420;42.676;23.262;2023-12-20T03:04:27;94731.28;;;0.86;100.00
12077;BME280;12420;42.676;23.262;2023-12-20T03:06:54;94732.22;;;0.83;100.00
12077;BME280;12420;42.676;23.262;2023-12-20T03:09:20;94732.50;;;0.85;100.00
12077;BME280;12420;42.676;23.262;2023-12-20T03:11:47;94739.75;;;0.89;100.00
12077;BME280;12420;42.676;23.262;2023-12-20T03:14:15;94714.69;;;0.75;100.00
12077;BME280;12420;42.676;23.262;2023-12-20T03:16:46;94731.44;;;0.92;100.00
12077;BME280;12420;42.676;23.262;2023-12-20T03:19:14;94719.94;;;0.88;100.00
12077;BME280;12420;42.676;23.262;2023-12-20T03:21:41;94731.28;;;0.86;100.00
12077;BME280;12420;42.676;23.262;2023-12-20T03:24:08;94727.66;;;0.90;100.00
12077;BME280;12420;42.676;23.262;2023-12-20T03:26:34;94720.44;;;0.77;100.00
12077;BME280;12420;42.676;23.262;2023-12-20T03:29:01;94692.69;;;0.55;100.00
12077;BME280;12420;42.676;23.262;2023-12-20T03:31:31;94713.03;;;0.69;100.00
12077;BME280;12420;42.676;23.262;2023-12-20T03:33:58;94715.44;;;0.76;100.00
12077;BME280;12420;42.676;23.262;2023-12-20T03:36:24;94718.34;;;0.72;100.00
12077;BME280;12420;42.676;23.262;2023-12-20T03:38:51;94714.41;;;0.73;100.00
12077;BME280;12420;42.676;23.262;2023-12-20T03:41:18;94700.19;;;0.69;100.00
12077;BME280;12420;42.676;23.262;2023-12-20T03:43:45;94693.44;;;0.55;100.00
12077;BME280;12420;42.676;23.262;2023-12-20T03:46:11;94707.56;;;0.78;100.00
12077;BME280;12420;42.676;23.262;2023-12-20T03:48:39;94716.03;;;0.80;100.00
12077;BME280;12420;42.676;23.262;2023-12-20T03:51:06;94720.13;;;0.75;100.00
12077;BME280;12420;42.676;23.262;2023-12-20T03:53:33;94709.94;;;0.52;100.00
12077;BME280;12420;42.676;23.262;2023-12-20T03:56:00;94717.19;;;0.55;100.00
12077;BME280;12420;42.676;23.262;2023-12-20T03:58:26;94704.78;;;0.54;100.00
12077;BME280;12420;42.676;23.262;2023-12-20T04:00:53;94680.06;;;0.33;100.00
12077;BME280;12420;42.676;23.262;2023-12-20T04:03:20;94709.22;;;0.42;100.00
12077;BME280;12420;42.676;23.262;2023-12-20T04:05:48;94698.88;;;0.55;100.00
12077;BME280;12420;42.676;23.262;2023-12-20T04:08:15;94700.97;;;0.60;100.00
12077;BME280;12420;42.676;23.262;2023-12-20T04:10:42;94686.16;;;0.61;100.00
12077;BME280;12420;42.676;23.262;2023-12-20T04:13:08;94675.16;;;0.47;100.00
12077;BME280;12420;42.676;23.262;2023-12-20T04:15:35;94683.28;;;0.56;100.00
12077;BME280;12420;42.676;23.262;2023-12-20T04:18:02;94658.41;;;0.39;100.00
12077;BME280;12420;42.676;23.262;2023-12-20T04:20:29;94681.63;;;0.58;100.00
12077;BME280;12420;42.676;23.262;2023-12-20T04:22:57;94673.28;;;0.62;100.00
12077;BME280;12420;42.676;23.262;2023-12-20T04:25:24;94663.66;;;0.52;100.00
12077;BME280;12420;42.676;23.262;2023-12-20T04:27:51;94666.06;;;0.50;100.00
12077;BME280;12420;42.676;23.262;2023-12-20T04:30:18;94665.94;;;0.44;100.00
12077;BME280;12420;42.676;23.262;2023-12-20T04:32:45;94673.19;;;0.47;100.00
12077;BME280;12420;42.676;23.262;2023-12-20T04:35:11;94667.63;;;0.41;100.00
12077;BME280;12420;42.676;23.262;2023-12-20T04:37:38;94660.03;;;0.46;100.00
12077;BME280;12420;42.676;23.262;2023-12-20T04:40:08;94647.03;;;0.40;100.00
12077;BME280;12420;42.676;23.262;2023-12-20T04:42:36;94650.97;;;0.39;100.00
12077;BME280;12420;42.676;23.262;2023-12-20T04:45:03;94666.41;;;0.42;100.00
12077;BME280;12420;42.676;23.262;2023-12-20T04:47:30;94663.38;;;0.40;100.00
12077;BME280;12420;42.676;23.262;2023-12-20T04:49:57;94654.03;;;0.32;100.00
12077;BME280;12420;42.676;23.262;2023-12-20T04:52:24;94657.94;;;0.40;100.00
12077;BME280;12420;42.676;23.262;2023-12-20T04:54:51;94632.19;;;-0.01;100.00
12077;BME280;12420;42.676;23.262;2023-12-20T04:57:20;94659.16;;;0.30;100.00
12077;BME280;12420;42.676;23.262;2023-12-20T04:59:47;94639.13;;;0.18;100.00
12077;BME280;12420;42.676;23.262;2023-12-20T05:02:14;94657.69;;;0.29;100.00
12077;BME280;12420;42.676;23.262;2023-12-20T05:04:41;94656.13;;;0.37;100.00
12077;BME280;12420;42.676;23.262;2023-12-20T05:07:08;94585.97;;;-0.10;100.00
12077;BME280;12420;42.676;23.262;2023-12-20T05:09:34;94648.59;;;0.32;100.00
12077;BME280;12420;42.676;23.262;2023-12-20T05:12:02;94616.28;;;0.16;100.00
12077;BME280;12420;42.676;23.262;2023-12-20T05:14:30;94631.69;;;0.19;100.00
12077;BME280;12420;42.676;23.262;2023-12-20T05:16:57;94602.13;;;0.03;100.00
12077;BME280;12420;42.676;23.262;2023-12-20T05:19:24;94651.91;;;0.36;100.00
12077;BME280;12420;42.676;23.262;2023-12-20T05:21:51;94638.59;;;0.38;100.00
12077;BME280;12420;42.676;23.262;2023-12-20T05:24:18;94626.44;;;0.06;100.00
12077;BME280;12420;42.676;23.262;2023-12-20T05:26:45;94640.16;;;0.21;100.00
12077;BME280;12420;42.676;23.262;2023-12-20T05:29:12;94567.72;;;-0.19;100.00
12077;BME280;12420;42.676;23.262;2023-12-20T05:31:40;94623.72;;;0.15;100.00
12077;BME280;12420;42.676;23.262;2023-12-20T05:34:06;94627.75;;;0.20;100.00
12077;BME280;12420;42.676;23.262;2023-12-20T05:36:35;94610.25;;;0.12;100.00
12077;BME280;12420;42.676;23.262;2023-12-20T05:39:02;94593.38;;;-0.02;100.00
12077;BME280;12420;42.676;23.262;2023-12-20T05:41:30;94624.16;;;0.14;100.00
12077;BME280;12420;42.676;23.262;2023-12-20T05:43:57;94620.41;;;0.02;100.00
12077;BME280;12420;42.676;23.262;2023-12-20T05:46:25;94611.25;;;-0.28;100.00
12077;BME280;12420;42.676;23.262;2023-12-20T05:48:54;94629.78;;;-0.08;100.00
12077;BME280;12420;42.676;23.262;2023-12-20T05:51:21;94587.72;;;-0.40;100.00
12077;BME280;12420;42.676;23.262;2023-12-20T05:53:48;94624.53;;;-0.12;100.00
12077;BME280;12420;42.676;23.262;2023-12-20T05:56:15;94634.22;;;-0.20;100.00
12077;BME280;12420;42.676;23.262;2023-12-20T05:58:42;94623.78;;;-0.31;100.00
12077;BME280;12420;42.676;23.262;2023-12-20T06:01:09;94615.94;;;-0.29;100.00
12077;BME280;12420;42.676;23.262;2023-12-20T06:03:35;94614.59;;;-0.33;100.00
12077;BME280;12420;42.676;23.262;2023-12-20T06:06:06;94616.09;;;-0.41;100.00
12077;BME280;12420;42.676;23.262;2023-12-20T06:08:33;94617.19;;;-0.48;100.00
12077;BME280;12420;42.676;23.262;2023-12-20T06:11:00;94610.69;;;-0.51;100.00
12077;BME280;12420;42.676;23.262;2023-12-20T06:13:28;94605.56;;;-0.58;100.00
12077;BME280;12420;42.676;23.262;2023-12-20T06:15:54;94608.72;;;-0.50;100.00
12077;BME280;12420;42.676;23.262;2023-12-20T06:18:22;94608.59;;;-0.56;100.00
12077;BME280;12420;42.676;23.262;2023-12-20T06:20:48;94631.22;;;-0.50;100.00
12077;BME280;12420;42.676;23.262;2023-12-20T06:23:17;94621.72;;;-0.45;100.00
12077;BME280;12420;42.676;23.262;2023-12-20T06:25:44;94618.25;;;-0.46;100.00
12077;BME280;12420;42.676;23.262;2023-12-20T06:28:11;94622.47;;;-0.45;100.00
12077;BME280;12420;42.676;23.262;2023-12-20T06:30:39;94603.16;;;-0.56;100.00
12077;BME280;12420;42.676;23.262;2023-12-20T06:33:06;94621.84;;;-0.49;100.00
12077;BME280;12420;42.676;23.262;2023-12-20T06:35:36;94602.97;;;-0.52;100.00
12077;BME280;12420;42.676;23.262;2023-12-20T06:38:03;94577.31;;;-0.70;100.00
12077;BME280;12420;42.676;23.262;2023-12-20T06:40:32;94617.94;;;-0.48;100.00
12077;BME280;12420;42.676;23.262;2023-12-20T06:42:59;94605.41;;;-0.45;100.00
12077;BME280;12420;42.676;23.262;2023-12-20T06:45:26;94577.19;;;-0.66;100.00
12077;BME280;12420;42.676;23.262;2023-12-20T06:47:53;94570.53;;;-0.56;100.00
12077;BME280;12420;42.676;23.262;2023-12-20T06:50:20;94600.41;;;-0.37;100.00
12077;BME280;12420;42.676;23.262;2023-12-20T06:52:47;94585.28;;;-0.29;100.00
12077;BME280;12420;42.676;23.262;2023-12-20T06:55:14;94558.44;;;-0.46;100.00
12077;BME280;12420;42.676;23.262;2023-12-20T06:57:42;94505.47;;;-0.78;100.00
12077;BME280;12420;42.676;23.262;2023-12-20T07:00:11;94588.59;;;-0.25;100.00
12077;BME280;12420;42.676;23.262;2023-12-20T07:02:38;94542.03;;;-0.79;100.00
12077;BME280;12420;42.676;23.262;2023-12-20T07:05:05;94580.88;;;-0.27;100.00
12077;BME280;12420;42.676;23.262;2023-12-20T07:07:32;94587.38;;;-0.24;100.00
12077;BME280;12420;42.676;23.262;2023-12-20T07:09:59;94565.31;;;-0.26;100.00
12077;BME280;12420;42.676;23.262;2023-12-20T07:12:26;94556.91;;;-0.37;100.00
12077;BME280;12420;42.676;23.262;2023-12-20T07:14:54;94575.44;;;-0.17;100.00
12077;BME280;12420;42.676;23.262;2023-12-20T07:17:21;94562.75;;;-0.30;100.00
12077;BME280;12420;42.676;23.262;2023-12-20T07:19:48;94537.25;;;-0.41;100.00
12077;BME280;12420;42.676;23.262;2023-12-20T07:22:15;94570.13;;;-0.12;100.00
12077;BME280;12420;42.676;23.262;2023-12-20T07:24:42;94545.53;;;-0.27;100.00
12077;BME280;12420;42.676;23.262;2023-12-20T07:27:09;94572.09;;;-0.12;100.00
12077;BME280;12420;42.676;23.262;2023-12-20T07:29:35;94565.88;;;-0.13;100.00
12077;BME280;12420;42.676;23.262;2023-12-20T07:32:05;94555.47;;;-0.14;100.00
12077;BME280;12420;42.676;23.262;2023-12-20T07:34:32;94537.97;;;-0.23;100.00
12077;BME280;12420;42.676;23.262;2023-12-20T07:37:00;94560.25;;;0.00;100.00
12077;BME280;12420;42.676;23.262;2023-12-20T07:39:29;94549.94;;;0.04;100.00
12077;BME280;12420;42.676;23.262;2023-12-20T07:41:56;94554.81;;;0.00;100.00
12077;BME280;12420;42.676;23.262;2023-12-20T07:44:23;94549.19;;;0.13;100.00
12077;BME280;12420;42.676;23.262;2023-12-20T07:46:50;94557.34;;;0.13;100.00
12077;BME280;12420;42.676;23.262;2023-12-20T07:49:20;94532.16;;;-0.06;100.00
12077;BME280;12420;42.676;23.262;2023-12-20T07:51:51;94556.09;;;0.23;100.00
12077;BME280;12420;42.676;23.262;2023-12-20T07:54:21;94554.41;;;0.26;100.00
12077;BME280;12420;42.676;23.262;2023-12-20T07:56:49;94547.13;;;-0.02;100.00
12077;BME280;12420;42.676;23.262;2023-12-20T07:59:15;94564.81;;;0.27;100.00
12077;BME280;12420;42.676;23.262;2023-12-20T08:01:42;94516.09;;;0.05;100.00
12077;BME280;12420;42.676;23.262;2023-12-20T08:04:10;94536.75;;;0.21;100.00
12077;BME280;12420;42.676;23.262;2023-12-20T08:06:38;94540.09;;;0.40;100.00
12077;BME280;12420;42.676;23.262;2023-12-20T08:09:05;94565.94;;;0.45;100.00
12077;BME280;12420;42.676;23.262;2023-12-20T08:11:32;94550.13;;;0.58;100.00
12077;BME280;12420;42.676;23.262;2023-12-20T08:13:59;94540.47;;;0.57;100.00
12077;BME280;12420;42.676;23.262;2023-12-20T08:16:26;94542.78;;;0.73;100.00
12077;BME280;12420;42.676;23.262;2023-12-20T08:18:52;94530.19;;;0.76;100.00
12077;BME280;12420;42.676;23.262;2023-12-20T08:21:19;94507.66;;;0.75;100.00
12077;BME280;12420;42.676;23.262;2023-12-20T08:23:49;94436.56;;;0.10;100.00
12077;BME280;12420;42.676;23.262;2023-12-20T08:26:19;94492.09;;;0.52;100.00
12077;BME280;12420;42.676;23.262;2023-12-20T08:28:47;94533.91;;;0.88;100.00
12077;BME280;12420;42.676;23.262;2023-12-20T08:31:14;94524.91;;;0.96;100.00
12077;BME280;12420;42.676;23.262;2023-12-20T08:33:42;94527.47;;;1.00;100.00
12077;BME280;12420;42.676;23.262;2023-12-20T08:36:09;94504.53;;;1.06;100.00
12077;BME280;12420;42.676;23.262;2023-12-20T08:38:36;94501.91;;;1.12;100.00
12077;BME280;12420;42.676;23.262;2023-12-20T08:41:05;94513.97;;;1.20;100.00
12077;BME280;12420;42.676;23.262;2023-12-20T08:43:32;94520.63;;;1.19;100.00
12077;BME280;12420;42.676;23.262;2023-12-20T08:45:58;94472.28;;;0.90;100.00
12077;BME280;12420;42.676;23.262;2023-12-20T08:48:25;94492.72;;;1.10;100.00
12077;BME280;12420;42.676;23.262;2023-12-20T08:50:52;94505.03;;;1.20;100.00
12077;BME280;12420;42.676;23.262;2023-12-20T08:53:19;94501.16;;;1.26;100.00
12077;BME280;12420;42.676;23.262;2023-12-20T08:55:47;94474.66;;;1.12;100.00
12077;BME280;12420;42.676;23.262;2023-12-20T08:58:15;94497.63;;;1.35;100.00
12077;BME280;12420;42.676;23.262;2023-12-20T09:00:42;94497.63;;;1.35;100.00
12077;BME280;12420;42.676;23.262;2023-12-20T09:03:09;94486.50;;;1.39;100.00
12077;BME280;12420;42.676;23.262;2023-12-20T09:05:36;94481.34;;;1.41;100.00
12077;BME280;12420;42.676;23.262;2023-12-20T09:08:03;94469.19;;;1.42;100.00
12077;BME280;12420;42.676;23.262;2023-12-20T09:10:30;94454.00;;;1.35;100.00
12077;BME280;12420;42.676;23.262;2023-12-20T09:12:57;94462.53;;;1.43;100.00
12077;BME280;12420;42.676;23.262;2023-12-20T09:15:26;94440.97;;;1.45;100.00
12077;BME280;12420;42.676;23.262;2023-12-20T09:17:53;94432.06;;;1.44;100.00
12077;BME280;12420;42.676;23.262;2023-12-20T09:20:20;94401.03;;;1.42;100.00
12077;BME280;12420;42.676;23.262;2023-12-20T09:22:48;94420.09;;;1.57;100.00
12077;BME280;12420;42.676;23.262;2023-12-20T09:25:15;94388.13;;;1.42;100.00
12077;BME280;12420;42.676;23.262;2023-12-20T09:27:43;94388.13;;;1.57;100.00
12077;BME280;12420;42.676;23.262;2023-12-20T09:30:10;94405.66;;;1.86;100.00
12077;BME280;12420;42.676;23.262;2023-12-20T09:32:38;94405.66;;;1.86;100.00
12077;BME280;12420;42.676;23.262;2023-12-20T09:35:06;94405.78;;;1.97;100.00
12077;BME280;12420;42.676;23.262;2023-12-20T09:37:34;94386.81;;;1.88;100.00
12077;BME280;12420;42.676;23.262;2023-12-20T09:40:01;94388.59;;;1.91;100.00
12077;BME280;12420;42.676;23.262;2023-12-20T09:42:33;94384.53;;;2.01;100.00
12077;BME280;12420;42.676;23.262;2023-12-20T09:45:08;94379.06;;;2.01;100.00
12077;BME280;12420;42.676;23.262;2023-12-20T09:47:36;94365.59;;;1.98;100.00
12077;BME280;12420;42.676;23.262;2023-12-20T09:50:05;94381.13;;;2.27;100.00
12077;BME280;12420;42.676;23.262;2023-12-20T09:52:33;94380.16;;;2.30;100.00
12077;BME280;12420;42.676;23.262;2023-12-20T09:55:01;94376.03;;;2.40;100.00
12077;BME280;12420;42.676;23.262;2023-12-20T09:57:31;94355.75;;;2.47;100.00
12077;BME280;12420;42.676;23.262;2023-12-20T09:59:58;94342.31;;;2.43;100.00
12077;BME280;12420;42.676;23.262;2023-12-20T10:02:25;94354.16;;;2.60;100.00
12077;BME280;12420;42.676;23.262;2023-12-20T10:04:54;94364.13;;;2.64;100.00
12077;BME280;12420;42.676;23.262;2023-12-20T10:07:22;94364.63;;;2.62;100.00
12077;BME280;12420;42.676;23.262;2023-12-20T10:09:51;94364.88;;;2.64;100.00
12077;BME280;12420;42.676;23.262;2023-12-20T10:12:18;94360.50;;;2.72;100.00
12077;BME280;12420;42.676;23.262;2023-12-20T10:14:45;94356.84;;;2.81;100.00
12077;BME280;12420;42.676;23.262;2023-12-20T10:17:11;94346.97;;;2.89;100.00
12077;BME280;12420;42.676;23.262;2023-12-20T10:19:38;94331.09;;;2.88;100.00
12077;BME280;12420;42.676;23.262;2023-12-20T10:22:05;94333.91;;;2.99;100.00
12077;BME280;12420;42.676;23.262;2023-12-20T10:24:33;94336.41;;;3.02;100.00
12077;BME280;12420;42.676;23.262;2023-12-20T10:27:03;94291.25;;;2.81;100.00
12077;BME280;12420;42.676;23.262;2023-12-20T10:29:33;94320.38;;;3.16;100.00
12077;BME280;12420;42.676;23.262;2023-12-20T10:32:21;94292.94;;;3.04;100.00
12077;BME280;12420;42.676;23.262;2023-12-20T10:34:48;94302.00;;;3.22;100.00
12077;BME280;12420;42.676;23.262;2023-12-20T10:37:15;94291.59;;;3.26;100.00
12077;BME280;12420;42.676;23.262;2023-12-20T10:39:50;94290.69;;;3.40;100.00
12077;BME280;12420;42.676;23.262;2023-12-20T10:42:22;94291.66;;;3.37;100.00
12077;BME280;12420;42.676;23.262;2023-12-20T10:44:49;94286.97;;;3.43;100.00
12077;BME280;12420;42.676;23.262;2023-12-20T10:47:17;94280.75;;;3.43;100.00
12077;BME280;12420;42.676;23.262;2023-12-20T10:49:45;94275.31;;;3.48;100.00
12077;BME280;12420;42.676;23.262;2023-12-20T10:52:13;94272.38;;;3.58;100.00
12077;BME280;12420;42.676;23.262;2023-12-20T10:54:40;94267.94;;;3.66;100.00
12077;BME280;12420;42.676;23.262;2023-12-20T10:57:08;94282.16;;;3.70;100.00
12077;BME280;12420;42.676;23.262;2023-12-20T10:59:37;94274.22;;;3.72;100.00
12077;BME280;12420;42.676;23.262;2023-12-20T11:02:04;94267.47;;;3.73;100.00
12077;BME280;12420;42.676;23.262;2023-12-20T11:04:39;94233.81;;;3.56;100.00
12077;BME280;12420;42.676;23.262;2023-12-20T11:07:18;94267.03;;;3.80;100.00
12077;BME280;12420;42.676;23.262;2023-12-20T11:09:52;94243.66;;;3.90;100.00
12077;BME280;12420;42.676;23.262;2023-12-20T11:12:29;94209.44;;;3.58;100.00
12077;BME280;12420;42.676;23.262;2023-12-20T11:14:58;94219.47;;;3.78;100.00
12077;BME280;12420;42.676;23.262;2023-12-20T11:17:29;94233.00;;;4.04;100.00
12077;BME280;12420;42.676;23.262;2023-12-20T11:20:06;94226.06;;;4.08;100.00
12077;BME280;12420;42.676;23.262;2023-12-20T11:22:34;94224.31;;;4.11;100.00
12077;BME280;12420;42.676;23.262;2023-12-20T11:25:04;94219.81;;;4.08;100.00
12077;BME280;12420;42.676;23.262;2023-12-20T11:27:33;94211.38;;;4.17;100.00
12077;BME280;12420;42.676;23.262;2023-12-20T11:30:03;94202.19;;;4.20;100.00
12077;BME280;12420;42.676;23.262;2023-12-20T11:32:34;94197.44;;;4.15;100.00
12077;BME280;12420;42.676;23.262;2023-12-20T11:35:16;94194.72;;;4.32;100.00
12077;BME280;12420;42.676;23.262;2023-12-20T11:37:45;94203.44;;;4.30;100.00
12077;BME280;12420;42.676;23.262;2023-12-20T11:40:15;94184.00;;;4.40;100.00
12077;BME280;12420;42.676;23.262;2023-12-20T11:42:45;94176.81;;;4.48;100.00
12077;BME280;12420;42.676;23.262;2023-12-20T11:45:17;94182.03;;;4.46;100.00
12077;BME280;12420;42.676;23.262;2023-12-20T11:47:46;94180.03;;;4.52;100.00
12077;BME280;12420;42.676;23.262;2023-12-20T11:50:15;94176.56;;;4.57;100.00
12077;BME280;12420;42.676;23.262;2023-12-20T11:52:41;94166.56;;;4.65;100.00
12077;BME280;12420;42.676;23.262;2023-12-20T11:55:09;94161.84;;;4.60;100.00
12077;BME280;12420;42.676;23.262;2023-12-20T11:57:36;94154.63;;;4.63;100.00
12077;BME280;12420;42.676;23.262;2023-12-20T12:00:05;94151.38;;;4.64;100.00
12077;BME280;12420;42.676;23.262;2023-12-20T12:02:32;94148.41;;;4.73;100.00
12077;BME280;12420;42.676;23.262;2023-12-20T12:04:59;94129.94;;;4.74;100.00
12077;BME280;12420;42.676;23.262;2023-12-20T12:07:26;94123.72;;;4.79;100.00
12077;BME280;12420;42.676;23.262;2023-12-20T12:09:53;94122.94;;;4.84;100.00
12077;BME280;12420;42.676;23.262;2023-12-20T12:12:20;94114.44;;;4.93;100.00
12077;BME280;12420;42.676;23.262;2023-12-20T12:14:47;94119.41;;;5.00;100.00
12077;BME280;12420;42.676;23.262;2023-12-20T12:17:16;94115.66;;;5.09;100.00
12077;BME280;12420;42.676;23.262;2023-12-20T12:19:43;94118.63;;;5.11;100.00
12077;BME280;12420;42.676;23.262;2023-12-20T12:22:12;94116.88;;;5.14;100.00
12077;BME280;12420;42.676;23.262;2023-12-20T12:24:39;94104.69;;;5.09;100.00
12077;BME280;12420;42.676;23.262;2023-12-20T12:27:06;94105.94;;;5.08;100.00
12077;BME280;12420;42.676;23.262;2023-12-20T12:29:33;94080.84;;;4.82;100.00
12077;BME280;12420;42.676;23.262;2023-12-20T12:32:02;94110.44;;;5.00;100.00
12077;BME280;12420;42.676;23.262;2023-12-20T12:34:32;94105.22;;;4.91;100.00
12077;BME280;12420;42.676;23.262;2023-12-20T12:36:59;94111.47;;;4.91;100.00
12077;BME280;12420;42.676;23.262;2023-12-20T12:39:26;94106.22;;;4.88;100.00
12077;BME280;12420;42.676;23.262;2023-12-20T12:41:55;94106.22;;;4.99;100.00
12077;BME280;12420;42.676;23.262;2023-12-20T12:44:22;94088.06;;;4.79;100.00
12077;BME280;12420;42.676;23.262;2023-12-20T12:46:50;94077.09;;;4.79;100.00
12077;BME280;12420;42.676;23.262;2023-12-20T12:49:19;94097.25;;;4.87;100.00